sensor_id;sensor_type;location;lat;lon;timestamp;P1;durP1;ratioP1;P2;durP2;ratioP2
76733;SDS011;65660;53.288;14.666;2024-02-26T00:04:41;2.67;;;2.47;;
76733;SDS011;65660;53.288;14.666;2024-02-26T00:09:42;2.20;;;2.10;;
76733;SDS011;65660;53.288;14.666;2024-02-26T00:14:43;7.03;;;2.70;;
76733;SDS011;65660;53.288;14.666;2024-02-26T00:19:43;3.33;;;2.90;;
76733;SDS011;65660;53.288;14.666;2024-02-26T00:24:44;4.63;;;3.87;;
76733;SDS011;65660;53.288;14.666;2024-02-26T00:29:44;3.87;;;3.57;;
76733;SDS011;65660;53.288;14.666;2024-02-26T00:34:45;6.03;;;5.43;;
76733;SDS011;65660;53.288;14.666;2024-02-26T00:39:45;4.40;;;4.00;;
76733;SDS011;65660;53.288;14.666;2024-02-26T00:44:46;4.40;;;4.00;;
76733;SDS011;65660;53.288;14.666;2024-02-26T00:49:46;3.63;;;3.33;;
76733;SDS011;65660;53.288;14.666;2024-02-26T00:54:47;3.33;;;3.07;;
76733;SDS011;65660;53.288;14.666;2024-02-26T00:59:47;4.40;;;4.10;;
76733;SDS011;65660;53.288;14.666;2024-02-26T01:04:48;3.87;;;3.03;;
76733;SDS011;65660;53.288;14.666;2024-02-26T01:09:48;3.83;;;3.50;;
76733;SDS011;65660;53.288;14.666;2024-02-26T01:14:49;4.23;;;3.80;;
76733;SDS011;65660;53.288;14.666;2024-02-26T01:19:49;4.17;;;3.87;;
76733;SDS011;65660;53.288;14.666;2024-02-26T01:24:50;4.57;;;4.27;;
76733;SDS011;65660;53.288;14.666;2024-02-26T01:29:50;4.90;;;4.03;;
76733;SDS011;65660;53.288;14.666;2024-02-26T01:34:51;6.40;;;4.80;;
76733;SDS011;65660;53.288;14.666;2024-02-26T01:39:51;3.50;;;3.20;;
76733;SDS011;65660;53.288;14.666;2024-02-26T01:44:52;3.00;;;2.80;;
76733;SDS011;65660;53.288;14.666;2024-02-26T01:49:52;3.60;;;3.30;;
76733;SDS011;65660;53.288;14.666;2024-02-26T01:54:53;3.70;;;3.40;;
76733;SDS011;65660;53.288;14.666;2024-02-26T01:59:54;4.47;;;3.97;;
76733;SDS011;65660;53.288;14.666;2024-02-26T02:04:54;3.83;;;3.53;;
76733;SDS011;65660;53.288;14.666;2024-02-26T02:09:55;4.30;;;3.57;;
76733;SDS011;65660;53.288;14.666;2024-02-26T02:14:55;3.50;;;3.17;;
76733;SDS011;65660;53.288;14.666;2024-02-26T02:19:56;3.63;;;3.33;;
76733;SDS011;65660;53.288;14.666;2024-02-26T02:24:56;3.73;;;3.30;;
76733;SDS011;65660;53.288;14.666;2024-02-26T02:29:57;4.30;;;4.00;;
76733;SDS011;65660;53.288;14.666;2024-02-26T02:34:58;4.17;;;3.77;;
76733;SDS011;65660;53.288;14.666;2024-02-26T02:39:58;5.20;;;4.90;;
76733;SDS011;65660;53.288;14.666;2024-02-26T02:44:59;5.30;;;4.77;;
76733;SDS011;65660;53.288;14.666;2024-02-26T02:49:59;4.80;;;4.40;;
76733;SDS011;65660;53.288;14.666;2024-02-26T02:55:00;4.80;;;4.50;;
76733;SDS011;65660;53.288;14.666;2024-02-26T03:00:01;5.30;;;4.80;;
76733;SDS011;65660;53.288;14.666;2024-02-26T03:05:02;5.10;;;4.70;;
76733;SDS011;65660;53.288;14.666;2024-02-26T03:10:03;5.33;;;4.83;;
76733;SDS011;65660;53.288;14.666;2024-02-26T03:15:04;5.20;;;4.70;;
76733;SDS011;65660;53.288;14.666;2024-02-26T03:20:05;5.40;;;4.90;;
76733;SDS011;65660;53.288;14.666;2024-02-26T03:25:06;5.37;;;4.97;;
76733;SDS011;65660;53.288;14.666;2024-02-26T03:30:07;6.03;;;5.53;;
76733;SDS011;65660;53.288;14.666;2024-02-26T03:35:09;4.60;;;4.20;;
76733;SDS011;65660;53.288;14.666;2024-02-26T03:40:09;4.60;;;4.20;;
76733;SDS011;65660;53.288;14.666;2024-02-26T03:45:10;4.43;;;4.03;;
76733;SDS011;65660;53.288;14.666;2024-02-26T03:50:11;4.40;;;4.10;;
76733;SDS011;65660;53.288;14.666;2024-02-26T03:55:11;5.83;;;4.50;;
76733;SDS011;65660;53.288;14.666;2024-02-26T04:00:12;5.10;;;4.60;;
76733;SDS011;65660;53.288;14.666;2024-02-26T04:05:13;5.53;;;5.03;;
76733;SDS011;65660;53.288;14.666;2024-02-26T04:10:14;6.73;;;6.13;;
76733;SDS011;65660;53.288;14.666;2024-02-26T04:15:15;7.37;;;6.33;;
76733;SDS011;65660;53.288;14.666;2024-02-26T04:20:15;5.87;;;5.20;;
76733;SDS011;65660;53.288;14.666;2024-02-26T04:25:16;5.33;;;4.80;;
76733;SDS011;65660;53.288;14.666;2024-02-26T04:30:16;5.10;;;4.60;;
76733;SDS011;65660;53.288;14.666;2024-02-26T04:35:17;5.27;;;4.77;;
76733;SDS011;65660;53.288;14.666;2024-02-26T04:40:17;5.87;;;5.13;;
76733;SDS011;65660;53.288;14.666;2024-02-26T04:45:18;5.83;;;4.87;;
76733;SDS011;65660;53.288;14.666;2024-02-26T04:50:18;5.57;;;5.00;;
76733;SDS011;65660;53.288;14.666;2024-02-26T04:55:19;5.93;;;5.13;;
76733;SDS011;65660;53.288;14.666;2024-02-26T05:00:19;6.23;;;5.67;;
76733;SDS011;65660;53.288;14.666;2024-02-26T05:05:20;5.43;;;4.90;;
76733;SDS011;65660;53.288;14.666;2024-02-26T05:10:20;6.73;;;5.73;;
76733;SDS011;65660;53.288;14.666;2024-02-26T05:15:21;5.80;;;5.30;;
76733;SDS011;65660;53.288;14.666;2024-02-26T05:20:21;5.77;;;5.27;;
76733;SDS011;65660;53.288;14.666;2024-02-26T05:25:22;5.93;;;5.37;;
76733;SDS011;65660;53.288;14.666;2024-02-26T05:30:22;7.37;;;6.77;;
76733;SDS011;65660;53.288;14.666;2024-02-26T05:35:23;6.30;;;5.80;;
76733;SDS011;65660;53.288;14.666;2024-02-26T05:40:23;6.63;;;6.07;;
76733;SDS011;65660;53.288;14.666;2024-02-26T05:45:24;5.57;;;4.80;;
76733;SDS011;65660;53.288;14.666;2024-02-26T05:50:24;7.53;;;5.10;;
76733;SDS011;65660;53.288;14.666;2024-02-26T05:55:25;6.60;;;6.00;;
76733;SDS011;65660;53.288;14.666;2024-02-26T06:00:25;7.20;;;6.57;;
76733;SDS011;65660;53.288;14.666;2024-02-26T06:05:26;6.37;;;5.70;;
76733;SDS011;65660;53.288;14.666;2024-02-26T06:10:26;6.30;;;5.70;;
76733;SDS011;65660;53.288;14.666;2024-02-26T06:15:27;5.77;;;5.13;;
76733;SDS011;65660;53.288;14.666;2024-02-26T06:20:27;7.07;;;5.23;;
76733;SDS011;65660;53.288;14.666;2024-02-26T06:25:28;8.53;;;5.77;;
76733;SDS011;65660;53.288;14.666;2024-02-26T06:30:28;6.57;;;5.03;;
76733;SDS011;65660;53.288;14.666;2024-02-26T06:35:29;5.70;;;5.07;;
76733;SDS011;65660;53.288;14.666;2024-02-26T06:40:29;6.30;;;5.10;;
76733;SDS011;65660;53.288;14.666;2024-02-26T06:45:30;6.60;;;6.10;;
76733;SDS011;65660;53.288;14.666;2024-02-26T06:50:30;5.03;;;4.57;;
76733;SDS011;65660;53.288;14.666;2024-02-26T06:55:31;5.70;;;5.20;;
76733;SDS011;65660;53.288;14.666;2024-02-26T07:00:31;6.00;;;5.20;;
76733;SDS011;65660;53.288;14.666;2024-02-26T07:05:32;7.53;;;6.60;;
76733;SDS011;65660;53.288;14.666;2024-02-26T07:10:32;8.53;;;7.70;;
76733;SDS011;65660;53.288;14.666;2024-02-26T07:15:33;7.77;;;6.20;;
76733;SDS011;65660;53.288;14.666;2024-02-26T07:20:33;7.43;;;6.63;;
76733;SDS011;65660;53.288;14.666;2024-02-26T07:25:34;9.57;;;8.23;;
76733;SDS011;65660;53.288;14.666;2024-02-26T07:30:34;11.23;;;9.90;;
76733;SDS011;65660;53.288;14.666;2024-02-26T07:35:35;9.47;;;8.13;;
76733;SDS011;65660;53.288;14.666;2024-02-26T07:40:35;10.27;;;8.57;;
76733;SDS011;65660;53.288;14.666;2024-02-26T07:45:36;10.60;;;8.23;;
76733;SDS011;65660;53.288;14.666;2024-02-26T07:50:36;9.57;;;7.47;;
76733;SDS011;65660;53.288;14.666;2024-02-26T07:55:36;9.97;;;7.73;;
76733;SDS011;65660;53.288;14.666;2024-02-26T08:00:37;14.20;;;9.50;;
76733;SDS011;65660;53.288;14.666;2024-02-26T08:05:37;13.70;;;9.23;;
76733;SDS011;65660;53.288;14.666;2024-02-26T08:10:38;22.83;;;14.33;;
76733;SDS011;65660;53.288;14.666;2024-02-26T08:15:38;22.93;;;13.97;;
76733;SDS011;65660;53.288;14.666;2024-02-26T08:20:39;23.70;;;15.73;;
76733;SDS011;65660;53.288;14.666;2024-02-26T08:25:39;25.50;;;16.67;;
76733;SDS011;65660;53.288;14.666;2024-02-26T08:30:40;33.37;;;19.70;;
76733;SDS011;65660;53.288;14.666;2024-02-26T08:35:40;30.87;;;18.60;;
76733;SDS011;65660;53.288;14.666;2024-02-26T08:40:42;31.07;;;18.87;;
76733;SDS011;65660;53.288;14.666;2024-02-26T08:45:43;32.13;;;20.07;;
76733;SDS011;65660;53.288;14.666;2024-02-26T08:50:43;35.10;;;21.00;;
76733;SDS011;65660;53.288;14.666;2024-02-26T08:55:44;38.77;;;21.90;;
76733;SDS011;65660;53.288;14.666;2024-02-26T09:00:44;35.63;;;21.53;;
76733;SDS011;65660;53.288;14.666;2024-02-26T09:05:45;40.53;;;23.90;;
76733;SDS011;65660;53.288;14.666;2024-02-26T09:10:45;40.20;;;23.50;;
76733;SDS011;65660;53.288;14.666;2024-02-26T09:15:46;38.50;;;23.03;;
76733;SDS011;65660;53.288;14.666;2024-02-26T09:20:46;40.93;;;24.73;;
76733;SDS011;65660;53.288;14.666;2024-02-26T09:25:47;46.47;;;26.03;;
76733;SDS011;65660;53.288;14.666;2024-02-26T09:30:47;43.80;;;26.07;;
76733;SDS011;65660;53.288;14.666;2024-02-26T09:35:48;41.17;;;25.03;;
76733;SDS011;65660;53.288;14.666;2024-02-26T09:40:48;38.07;;;22.87;;
76733;SDS011;65660;53.288;14.666;2024-02-26T09:45:55;39.57;;;23.17;;
76733;SDS011;65660;53.288;14.666;2024-02-26T09:50:55;42.03;;;25.73;;
76733;SDS011;65660;53.288;14.666;2024-02-26T09:55:56;47.30;;;27.63;;
76733;SDS011;65660;53.288;14.666;2024-02-26T10:00:56;46.33;;;26.47;;
76733;SDS011;65660;53.288;14.666;2024-02-26T10:05:57;44.63;;;27.80;;
76733;SDS011;65660;53.288;14.666;2024-02-26T10:10:58;44.70;;;26.83;;
76733;SDS011;65660;53.288;14.666;2024-02-26T10:16:00;44.17;;;27.93;;
76733;SDS011;65660;53.288;14.666;2024-02-26T10:21:01;47.47;;;27.50;;
76733;SDS011;65660;53.288;14.666;2024-02-26T10:26:01;39.33;;;25.70;;
76733;SDS011;65660;53.288;14.666;2024-02-26T10:31:02;44.03;;;26.80;;
76733;SDS011;65660;53.288;14.666;2024-02-26T10:36:06;42.40;;;25.53;;
76733;SDS011;65660;53.288;14.666;2024-02-26T10:41:08;38.60;;;24.43;;
76733;SDS011;65660;53.288;14.666;2024-02-26T10:46:13;37.87;;;23.07;;
76733;SDS011;65660;53.288;14.666;2024-02-26T10:51:14;31.53;;;20.87;;
76733;SDS011;65660;53.288;14.666;2024-02-26T10:56:15;34.03;;;22.07;;
76733;SDS011;65660;53.288;14.666;2024-02-26T11:01:16;31.30;;;19.60;;
76733;SDS011;65660;53.288;14.666;2024-02-26T11:06:16;26.20;;;17.60;;
76733;SDS011;65660;53.288;14.666;2024-02-26T11:11:17;23.23;;;15.33;;
76733;SDS011;65660;53.288;14.666;2024-02-26T11:16:18;27.47;;;17.63;;
76733;SDS011;65660;53.288;14.666;2024-02-26T11:21:19;24.83;;;16.70;;
76733;SDS011;65660;53.288;14.666;2024-02-26T11:26:19;20.70;;;14.10;;
76733;SDS011;65660;53.288;14.666;2024-02-26T11:31:20;22.53;;;15.23;;
76733;SDS011;65660;53.288;14.666;2024-02-26T11:36:25;23.30;;;14.37;;
76733;SDS011;65660;53.288;14.666;2024-02-26T11:41:25;20.50;;;13.47;;
76733;SDS011;65660;53.288;14.666;2024-02-26T11:46:30;21.27;;;14.33;;
76733;SDS011;65660;53.288;14.666;2024-02-26T11:51:34;21.60;;;14.67;;
76733;SDS011;65660;53.288;14.666;2024-02-26T11:56:35;19.87;;;13.63;;
76733;SDS011;65660;53.288;14.666;2024-02-26T12:01:44;19.30;;;12.70;;
76733;SDS011;65660;53.288;14.666;2024-02-26T12:06:58;18.57;;;13.27;;
76733;SDS011;65660;53.288;14.666;2024-02-26T12:12:01;19.07;;;12.07;;
76733;SDS011;65660;53.288;14.666;2024-02-26T12:17:03;17.73;;;11.70;;
76733;SDS011;65660;53.288;14.666;2024-02-26T12:22:06;15.60;;;11.20;;
76733;SDS011;65660;53.288;14.666;2024-02-26T12:27:06;15.00;;;10.83;;
76733;SDS011;65660;53.288;14.666;2024-02-26T12:32:07;17.53;;;12.30;;
76733;SDS011;65660;53.288;14.666;2024-02-26T12:37:08;18.67;;;13.60;;
76733;SDS011;65660;53.288;14.666;2024-02-26T12:42:09;16.23;;;11.40;;
76733;SDS011;65660;53.288;14.666;2024-02-26T12:47:09;15.90;;;11.37;;
76733;SDS011;65660;53.288;14.666;2024-02-26T12:52:10;15.57;;;12.27;;
76733;SDS011;65660;53.288;14.666;2024-02-26T12:57:10;17.90;;;12.67;;
76733;SDS011;65660;53.288;14.666;2024-02-26T13:02:11;15.70;;;11.30;;
76733;SDS011;65660;53.288;14.666;2024-02-26T13:07:11;14.27;;;10.43;;
76733;SDS011;65660;53.288;14.666;2024-02-26T13:12:12;14.87;;;11.40;;
76733;SDS011;65660;53.288;14.666;2024-02-26T13:17:13;18.90;;;13.47;;
76733;SDS011;65660;53.288;14.666;2024-02-26T13:22:13;18.57;;;12.97;;
76733;SDS011;65660;53.288;14.666;2024-02-26T13:27:20;15.80;;;11.93;;
76733;SDS011;65660;53.288;14.666;2024-02-26T13:32:22;11.37;;;9.10;;
76733;SDS011;65660;53.288;14.666;2024-02-26T13:37:22;10.47;;;9.03;;
76733;SDS011;65660;53.288;14.666;2024-02-26T13:42:23;11.60;;;9.57;;
76733;SDS011;65660;53.288;14.666;2024-02-26T13:47:23;11.23;;;9.17;;
76733;SDS011;65660;53.288;14.666;2024-02-26T13:52:24;14.33;;;11.20;;
76733;SDS011;65660;53.288;14.666;2024-02-26T13:57:25;12.13;;;9.47;;
76733;SDS011;65660;53.288;14.666;2024-02-26T14:02:25;14.17;;;10.43;;
76733;SDS011;65660;53.288;14.666;2024-02-26T14:07:26;14.17;;;12.67;;
76733;SDS011;65660;53.288;14.666;2024-02-26T14:12:26;15.73;;;12.90;;
76733;SDS011;65660;53.288;14.666;2024-02-26T14:17:27;14.97;;;11.50;;
76733;SDS011;65660;53.288;14.666;2024-02-26T14:22:27;14.57;;;11.20;;
76733;SDS011;65660;53.288;14.666;2024-02-26T14:27:28;15.83;;;13.30;;
76733;SDS011;65660;53.288;14.666;2024-02-26T14:32:28;13.27;;;10.70;;
76733;SDS011;65660;53.288;14.666;2024-02-26T14:37:29;13.93;;;11.10;;
76733;SDS011;65660;53.288;14.666;2024-02-26T14:42:29;15.30;;;11.97;;
76733;SDS011;65660;53.288;14.666;2024-02-26T14:47:30;14.00;;;10.90;;
76733;SDS011;65660;53.288;14.666;2024-02-26T14:52:30;14.03;;;10.33;;
76733;SDS011;65660;53.288;14.666;2024-02-26T14:57:31;12.70;;;10.47;;
76733;SDS011;65660;53.288;14.666;2024-02-26T15:02:31;14.20;;;12.70;;
76733;SDS011;65660;53.288;14.666;2024-02-26T15:07:32;14.90;;;10.83;;
76733;SDS011;65660;53.288;14.666;2024-02-26T15:12:32;13.27;;;10.43;;
76733;SDS011;65660;53.288;14.666;2024-02-26T15:17:33;12.93;;;11.37;;
76733;SDS011;65660;53.288;14.666;2024-02-26T15:22:33;12.63;;;9.90;;
76733;SDS011;65660;53.288;14.666;2024-02-26T15:27:34;14.77;;;11.30;;
76733;SDS011;65660;53.288;14.666;2024-02-26T15:32:34;15.50;;;10.53;;
76733;SDS011;65660;53.288;14.666;2024-02-26T15:37:35;15.50;;;11.33;;
76733;SDS011;65660;53.288;14.666;2024-02-26T15:42:36;13.13;;;10.17;;
76733;SDS011;65660;53.288;14.666;2024-02-26T15:47:36;14.10;;;11.17;;
76733;SDS011;65660;53.288;14.666;2024-02-26T15:52:38;15.87;;;11.30;;
76733;SDS011;65660;53.288;14.666;2024-02-26T15:57:40;15.33;;;11.47;;
76733;SDS011;65660;53.288;14.666;2024-02-26T16:02:42;17.43;;;11.10;;
76733;SDS011;65660;53.288;14.666;2024-02-26T16:07:43;14.37;;;12.47;;
76733;SDS011;65660;53.288;14.666;2024-02-26T16:12:47;15.43;;;11.53;;
76733;SDS011;65660;53.288;14.666;2024-02-26T16:17:50;13.43;;;11.03;;
76733;SDS011;65660;53.288;14.666;2024-02-26T16:22:52;14.03;;;10.80;;
76733;SDS011;65660;53.288;14.666;2024-02-26T16:27:52;15.50;;;10.83;;
76733;SDS011;65660;53.288;14.666;2024-02-26T16:32:54;13.53;;;10.97;;
76733;SDS011;65660;53.288;14.666;2024-02-26T16:37:54;16.00;;;11.23;;
76733;SDS011;65660;53.288;14.666;2024-02-26T16:42:55;13.33;;;10.87;;
76733;SDS011;65660;53.288;14.666;2024-02-26T16:47:55;12.77;;;9.67;;
76733;SDS011;65660;53.288;14.666;2024-02-26T16:52:56;14.63;;;10.07;;
76733;SDS011;65660;53.288;14.666;2024-02-26T16:57:56;14.07;;;10.47;;
76733;SDS011;65660;53.288;14.666;2024-02-26T17:02:57;15.07;;;10.60;;
76733;SDS011;65660;53.288;14.666;2024-02-26T17:07:58;13.97;;;12.07;;
76733;SDS011;65660;53.288;14.666;2024-02-26T17:12:58;14.33;;;10.70;;
76733;SDS011;65660;53.288;14.666;2024-02-26T17:17:59;14.87;;;11.73;;
76733;SDS011;65660;53.288;14.666;2024-02-26T17:23:00;15.30;;;11.30;;
76733;SDS011;65660;53.288;14.666;2024-02-26T17:28:02;14.53;;;10.73;;
76733;SDS011;65660;53.288;14.666;2024-02-26T17:33:03;14.33;;;12.30;;
76733;SDS011;65660;53.288;14.666;2024-02-26T17:38:04;15.20;;;10.77;;
76733;SDS011;65660;53.288;14.666;2024-02-26T17:43:04;15.47;;;10.17;;
76733;SDS011;65660;53.288;14.666;2024-02-26T17:48:05;17.50;;;12.30;;
76733;SDS011;65660;53.288;14.666;2024-02-26T17:53:05;15.93;;;11.00;;
76733;SDS011;65660;53.288;14.666;2024-02-26T17:58:06;16.73;;;10.80;;
76733;SDS011;65660;53.288;14.666;2024-02-26T18:03:06;14.03;;;10.60;;
76733;SDS011;65660;53.288;14.666;2024-02-26T18:08:07;16.20;;;10.67;;
76733;SDS011;65660;53.288;14.666;2024-02-26T18:13:08;16.23;;;10.60;;
76733;SDS011;65660;53.288;14.666;2024-02-26T18:18:09;15.93;;;10.30;;
76733;SDS011;65660;53.288;14.666;2024-02-26T18:23:09;16.87;;;11.23;;
76733;SDS011;65660;53.288;14.666;2024-02-26T18:28:10;16.43;;;11.73;;
76733;SDS011;65660;53.288;14.666;2024-02-26T18:33:12;16.33;;;12.13;;
76733;SDS011;65660;53.288;14.666;2024-02-26T18:38:12;17.90;;;12.03;;
76733;SDS011;65660;53.288;14.666;2024-02-26T18:43:13;16.00;;;11.40;;
76733;SDS011;65660;53.288;14.666;2024-02-26T18:48:13;18.10;;;11.80;;
76733;SDS011;65660;53.288;14.666;2024-02-26T18:53:14;18.27;;;11.97;;
76733;SDS011;65660;53.288;14.666;2024-02-26T18:58:14;18.47;;;12.30;;
76733;SDS011;65660;53.288;14.666;2024-02-26T19:03:15;16.07;;;11.43;;
76733;SDS011;65660;53.288;14.666;2024-02-26T19:08:16;18.10;;;11.60;;
76733;SDS011;65660;53.288;14.666;2024-02-26T19:13:16;16.73;;;11.47;;
76733;SDS011;65660;53.288;14.666;2024-02-26T19:18:17;18.23;;;12.00;;
76733;SDS011;65660;53.288;14.666;2024-02-26T19:23:17;18.87;;;12.33;;
76733;SDS011;65660;53.288;14.666;2024-02-26T19:28:18;17.77;;;12.27;;
76733;SDS011;65660;53.288;14.666;2024-02-26T19:33:18;15.60;;;11.70;;
76733;SDS011;65660;53.288;14.666;2024-02-26T19:38:19;15.90;;;11.27;;
76733;SDS011;65660;53.288;14.666;2024-02-26T19:43:20;15.27;;;11.93;;
76733;SDS011;65660;53.288;14.666;2024-02-26T19:48:20;15.80;;;11.10;;
76733;SDS011;65660;53.288;14.666;2024-02-26T19:53:21;18.70;;;13.17;;
76733;SDS011;65660;53.288;14.666;2024-02-26T19:58:21;16.13;;;10.93;;
76733;SDS011;65660;53.288;14.666;2024-02-26T20:03:22;17.23;;;11.10;;
76733;SDS011;65660;53.288;14.666;2024-02-26T20:08:22;18.43;;;13.07;;
76733;SDS011;65660;53.288;14.666;2024-02-26T20:13:23;17.70;;;11.60;;
76733;SDS011;65660;53.288;14.666;2024-02-26T20:18:23;16.03;;;10.80;;
76733;SDS011;65660;53.288;14.666;2024-02-26T20:23:24;18.67;;;14.20;;
76733;SDS011;65660;53.288;14.666;2024-02-26T20:28:24;17.17;;;11.87;;
76733;SDS011;65660;53.288;14.666;2024-02-26T20:33:25;20.13;;;12.30;;
76733;SDS011;65660;53.288;14.666;2024-02-26T20:38:25;16.10;;;11.40;;
76733;SDS011;65660;53.288;14.666;2024-02-26T20:43:26;15.07;;;11.30;;
76733;SDS011;65660;53.288;14.666;2024-02-26T20:48:26;18.10;;;11.77;;
76733;SDS011;65660;53.288;14.666;2024-02-26T20:53:27;17.67;;;11.90;;
76733;SDS011;65660;53.288;14.666;2024-02-26T20:58:28;19.63;;;11.57;;
76733;SDS011;65660;53.288;14.666;2024-02-26T21:03:28;16.40;;;11.40;;
76733;SDS011;65660;53.288;14.666;2024-02-26T21:08:29;15.57;;;10.97;;
76733;SDS011;65660;53.288;14.666;2024-02-26T21:13:29;16.93;;;10.33;;
76733;SDS011;65660;53.288;14.666;2024-02-26T21:18:30;14.13;;;9.80;;
76733;SDS011;65660;53.288;14.666;2024-02-26T21:23:31;16.53;;;10.87;;
76733;SDS011;65660;53.288;14.666;2024-02-26T21:28:31;17.17;;;10.63;;
76733;SDS011;65660;53.288;14.666;2024-02-26T21:33:32;15.43;;;9.57;;
76733;SDS011;65660;53.288;14.666;2024-02-26T21:38:32;19.50;;;11.30;;
76733;SDS011;65660;53.288;14.666;2024-02-26T21:43:33;12.50;;;10.10;;
76733;SDS011;65660;53.288;14.666;2024-02-26T21:48:33;16.13;;;10.47;;
76733;SDS011;65660;53.288;14.666;2024-02-26T21:53:34;14.93;;;10.90;;
76733;SDS011;65660;53.288;14.666;2024-02-26T21:58:34;15.93;;;11.30;;
76733;SDS011;65660;53.288;14.666;2024-02-26T22:03:35;15.67;;;11.67;;
76733;SDS011;65660;53.288;14.666;2024-02-26T22:08:35;14.80;;;10.47;;
76733;SDS011;65660;53.288;14.666;2024-02-26T22:13:36;14.93;;;10.77;;
76733;SDS011;65660;53.288;14.666;2024-02-26T22:18:36;17.47;;;11.00;;
76733;SDS011;65660;53.288;14.666;2024-02-26T22:23:37;17.23;;;10.90;;
76733;SDS011;65660;53.288;14.666;2024-02-26T22:28:37;16.13;;;11.40;;
76733;SDS011;65660;53.288;14.666;2024-02-26T22:33:38;17.43;;;12.23;;
76733;SDS011;65660;53.288;14.666;2024-02-26T22:38:39;16.33;;;10.93;;
76733;SDS011;65660;53.288;14.666;2024-02-26T22:43:40;15.43;;;10.83;;
76733;SDS011;65660;53.288;14.666;2024-02-26T22:48:40;16.17;;;10.80;;
76733;SDS011;65660;53.288;14.666;2024-02-26T22:53:41;15.40;;;11.13;;
76733;SDS011;65660;53.288;14.666;2024-02-26T22:58:41;14.20;;;10.50;;
76733;SDS011;65660;53.288;14.666;2024-02-26T23:03:42;14.87;;;10.90;;
76733;SDS011;65660;53.288;14.666;2024-02-26T23:08:42;14.67;;;10.80;;
76733;SDS011;65660;53.288;14.666;2024-02-26T23:13:43;15.97;;;11.20;;
76733;SDS011;65660;53.288;14.666;2024-02-26T23:18:43;18.13;;;11.77;;
76733;SDS011;65660;53.288;14.666;2024-02-26T23:23:45;15.63;;;11.10;;
76733;SDS011;65660;53.288;14.666;2024-02-26T23:28:45;17.87;;;11.87;;
76733;SDS011;65660;53.288;14.666;2024-02-26T23:33:46;17.30;;;11.70;;
76733;SDS011;65660;53.288;14.666;2024-02-26T23:38:47;14.67;;;11.03;;
76733;SDS011;65660;53.288;14.666;2024-02-26T23:43:47;18.97;;;12.40;;
76733;SDS011;65660;53.288;14.666;2024-02-26T23:48:48;19.33;;;12.27;;
76733;SDS011;65660;53.288;14.666;2024-02-26T23:53:48;17.23;;;12.17;;
76733;SDS011;65660;53.288;14.666;2024-02-26T23:58:49;20.07;;;12.60;;
